Latest Weather Observations for Samuel Hill

IDQ60801

Issued at 9:52 pm EST Friday 20 July 2018 (issued every 10 minutes, with the page automatically refreshed every 10 minutes)

About weather observations | Map of weather stations | Latest weather observations for QLD | Other Formats
Station Details ID: 033308 Name: SAMUEL HILL AERO Lat: -22.74 Lon: 150.66 Height: 31.0 m
Data from the previous 72 hours. | See also: Recent months at Samuel Hill
Date/Time
EST
Temp
°C
App
Temp
°C
Dew
Point
°C
Rel
Hum
%
Delta-T
°C
Wind Press
QNH
hPa
Press
MSL
hPa
Rain since
9am
mm
Dir  Spd
km/h
Gust
km/h
Spd
kts
Gust
kts
20/09:30pm 14.6 15.5 13.0 90 0.9 CALM 0 0 0 0 1017.4 1017.4 0.0
20/09:20pm 15.0 16.2 13.7 92 0.7 CALM 0 0 0 0 1017.4 1017.4 0.0
20/09:00pm 15.6 17.0 14.3 92 0.7 CALM 0 0 0 0 1017.3 1017.3 0.0
20/08:57pm 15.4 16.6 13.8 90 0.9 CALM 0 0 0 0 1017.2 1017.2 0.0
20/08:30pm 16.2 17.8 14.9 92 0.7 CALM 0 0 0 0 1017.2 1017.2 0.0
20/08:00pm 17.0 17.7 15.7 92 0.8 N 6 9 3 5 1017.2 1017.2 0.0
20/07:30pm 17.4 18.0 15.2 87 1.3 NNE 6 7 3 4 1017.1 1017.1 0.0
20/07:00pm 18.0 18.5 16.5 91 0.9 N 9 13 5 7 1016.8 1016.8 0.0
20/06:30pm 18.3 18.9 15.4 83 1.7 NE 6 7 3 4 1016.5 1016.5 0.0
20/06:00pm 20.2 20.7 16.6 80 2.2 N 9 11 5 6 1016.4 1016.4 0.0
20/05:30pm 20.6 21.0 16.2 76 2.6 N 9 13 5 7 1016.1 1016.0 0.0
20/05:00pm 21.7 21.6 16.0 70 3.4 N 11 17 6 9 1015.8 1015.7 0.0
20/04:30pm 22.6 21.3 15.9 66 4.0 NNW 17 22 9 12 1015.6 1015.5 0.0
20/04:00pm 23.0 21.3 15.8 64 4.3 NNW 19 24 10 13 1015.4 1015.3 0.0
20/03:30pm 24.0 22.5 15.2 58 5.3 NNW 17 30 9 16 1015.4 1015.3 0.0
20/03:00pm 24.0 22.3 15.8 60 5.0 NNW 19 28 10 15 1015.4 1015.3 0.0
20/02:30pm 24.2 22.4 15.9 59 5.0 NNW 20 32 11 17 1015.5 1015.4 0.0
20/02:00pm 24.5 22.8 16.2 60 5.1 NNW 20 32 11 17 1015.7 1015.6 0.0
20/01:30pm 24.7 23.2 16.2 59 5.2 NW 19 32 10 17 1016.0 1015.9 0.0
20/01:00pm 24.7 23.0 16.2 59 5.2 NNW 20 30 11 16 1016.2 1016.1 0.0
20/12:30pm 24.3 23.0 15.8 59 5.2 NNW 17 24 9 13 1016.6 1016.6 0.0
20/12:00pm 24.1 23.0 16.4 62 4.7 NNW 17 24 9 13 1017.4 1017.4 0.0
20/11:30am 24.7 23.5 16.2 59 5.2 N 17 24 9 13 1017.7 1017.7 0.0
20/11:00am 23.4 22.6 16.0 63 4.5 NNW 15 24 8 13 1018.1 1018.1 0.0
20/10:30am 22.8 22.5 16.4 67 3.9 N 13 20 7 11 1018.7 1018.7 0.0
20/10:00am 21.9 23.8 16.6 72 3.2 NW 2 9 1 5 1018.9 1018.9 0.0
20/09:30am 20.6 22.8 16.4 77 2.5 CALM 0 0 0 0 1019.0 1019.0 0.0
20/09:00am 19.1 21.2 16.3 84 1.7 CALM 0 0 0 0 1019.0 1019.0 0.0
20/08:30am 17.0 19.0 15.9 93 0.6 CALM 0 0 0 0 1018.9 1018.9 0.0
20/08:00am 13.7 14.6 12.8 94 0.5 CALM 0 0 0 0 1018.6 1018.6 0.0
20/07:30am 12.6 13.2 12.0 96 0.3 CALM 0 0 0 0 1018.7 1018.7 0.0
20/07:00am 10.7 10.8 10.1 96 0.3 CALM 0 0 0 0 1018.4 1018.4 0.0
20/06:30am 10.7 10.8 10.1 96 0.3 CALM 0 0 0 0 1018.3 1018.3 0.0
20/06:00am 10.6 10.7 10.0 96 0.3 CALM 0 0 0 0 1018.3 1018.3 0.0
20/05:30am 10.5 10.1 9.9 96 0.3 NE 2 6 1 3 1018.1 1018.1 0.0
20/05:00am 10.1 10.0 9.3 95 0.4 CALM 0 0 0 0 1018.1 1018.1 0.0
20/04:30am 9.9 9.7 9.1 95 0.4 CALM 0 0 0 0 1017.8 1017.8 0.0
20/04:00am 9.8 9.6 9.0 95 0.4 CALM 0 0 0 0 1017.5 1017.5 0.0
20/03:30am 9.9 9.7 9.1 95 0.4 CALM 0 0 0 0 1017.7 1017.7 0.0
20/03:00am 9.8 9.6 9.0 95 0.4 CALM 0 6 0 3 1017.8 1017.8 0.0
20/02:30am 9.7 9.1 8.8 94 0.4 W 2 6 1 3 1018.1 1018.1 0.0
20/02:00am 10.0 9.8 9.1 94 0.4 CALM 0 0 0 0 1018.0 1018.0 0.0
20/01:30am 10.0 9.8 9.1 94 0.4 CALM 0 0 0 0 1018.0 1018.0 0.0
20/01:00am 10.3 8.5 9.5 95 0.4 WSW 9 11 5 6 1018.3 1018.3 0.0
20/12:30am 9.9 8.4 9.0 94 0.4 ENE 7 11 4 6 1018.2 1018.2 0.0
20/12:00am 10.0 9.7 8.8 92 0.6 CALM 0 0 0 0 1019.0 1019.0 0.0
 
Date/Time
EST
Temp
°C
App
Temp
°C
Dew
Point
°C
Rel
Hum
%
Delta-T
°C
Wind Press
QNH
hPa
Press
MSL
hPa
Rain since
9am
mm
Dir  Spd
km/h
Gust
km/h
Spd
kts
Gust
kts
19/11:30pm 10.7 10.6 9.5 92 0.6 CALM 0 0 0 0 1019.2 1019.2 0.0
19/11:00pm 11.2 10.0 10.3 94 0.5 W 7 9 4 5 1019.4 1019.4 0.0
19/10:30pm 11.2 11.3 10.3 94 0.5 CALM 0 0 0 0 1019.3 1019.3 0.0
19/10:00pm 10.8 10.7 9.4 91 0.7 CALM 0 0 0 0 1019.4 1019.4 0.0
19/09:30pm 11.4 11.5 10.0 91 0.7 CALM 0 0 0 0 1019.4 1019.4 0.0
19/09:00pm 11.6 11.6 9.7 88 1.0 CALM 0 0 0 0 1019.2 1019.2 0.0
19/08:30pm 12.5 11.6 10.6 88 1.0 W 6 7 3 4 1019.3 1019.3 0.0
19/08:00pm 13.3 13.8 11.5 89 1.0 CALM 0 0 0 0 1019.1 1019.1 0.0
19/07:30pm 13.8 14.2 11.3 85 1.3 CALM 0 0 0 0 1019.1 1019.1 0.0
19/07:00pm 14.8 15.4 11.9 83 1.6 CALM 0 0 0 0 1019.1 1019.1 0.0
19/06:30pm 16.0 16.5 11.6 75 2.4 CALM 0 0 0 0 1018.8 1018.8 0.0
19/06:00pm 18.1 17.0 12.1 68 3.3 NE 9 9 5 5 1018.6 1018.6 0.0
19/05:30pm 19.2 18.7 12.0 63 4.0 NE 6 9 3 5 1018.4 1018.4 0.0
19/05:00pm 20.2 18.6 11.4 57 4.8 NE 11 19 6 10 1018.2 1018.2 0.0
19/04:30pm 21.5 19.1 11.5 53 5.6 NE 15 24 8 13 1018.0 1018.0 0.0
19/04:00pm 22.3 20.3 11.4 50 6.1 NE 13 19 7 10 1017.7 1017.7 0.0
19/03:30pm 22.7 20.2 11.1 48 6.5 NE 15 24 8 13 1017.7 1017.7 0.0
19/03:00pm 22.7 20.5 10.8 47 6.6 NE 13 19 7 10 1017.8 1017.8 0.0
19/02:30pm 23.0 20.5 11.1 47 6.6 E 15 22 8 12 1018.2 1018.2 0.0
19/02:00pm 23.1 20.7 11.5 48 6.5 E 15 20 8 11 1018.5 1018.5 0.0
19/01:30pm 23.8 21.8 11.5 46 6.9 E 13 19 7 10 1018.9 1018.9 0.0
19/01:00pm 23.0 20.9 11.1 47 6.6 ESE 13 20 7 11 1019.1 1019.1 0.0
19/12:30pm 22.6 20.3 10.4 46 6.7 ESE 13 20 7 11 1019.6 1019.6 0.0
19/12:00pm 23.0 21.2 10.8 46 6.7 NE 11 19 6 10 1020.2 1020.2 0.0
19/11:30am 23.2 21.2 10.3 44 7.1 E 11 20 6 11 1020.6 1020.6 0.0
19/11:00am 22.8 20.4 9.9 44 7.0 SE 13 19 7 10 1021.0 1021.0 0.0
19/10:30am 22.8 21.0 9.6 43 7.1 ESE 9 13 5 7 1021.5 1021.5 0.0
19/10:00am 20.8 19.8 12.2 58 4.8 SSE 9 13 5 7 1021.6 1021.6 0.0
19/09:30am 19.4 19.1 14.4 73 2.9 SSE 9 11 5 6 1021.7 1021.7 0.0
19/09:00am 17.8 17.6 14.7 82 1.8 SSE 9 11 5 6 1021.8 1021.8 0.0
19/08:30am 15.4 15.3 13.9 91 0.8 SSE 7 9 4 5 1021.6 1021.6 0.0
19/08:00am 13.8 13.8 13.6 99 0.1 S 6 7 3 4 1021.6 1021.6 0.0
19/07:30am 11.4 11.8 11.2 99 0.1 CALM 0 0 0 0 1021.5 1021.5 0.0
19/07:00am 9.7 9.6 9.6 99 0.0 CALM 0 0 0 0 1021.2 1021.2 0.0
19/06:30am 7.7 7.0 7.1 96 0.3 CALM 0 0 0 0 1020.7 1020.7 0.0
19/06:00am 7.8 7.2 7.2 96 0.3 CALM 0 0 0 0 1020.6 1020.6 0.0
19/05:30am 7.9 7.3 7.3 96 0.3 CALM 0 0 0 0 1020.5 1020.5 0.0
19/05:00am 7.8 7.2 7.2 96 0.3 CALM 0 0 0 0 1020.5 1020.5 0.0
19/04:30am 7.9 7.3 7.3 96 0.3 CALM 0 0 0 0 1020.3 1020.3 0.0
19/04:16am 7.8 7.1 7.1 95 0.3 CALM 0 0 0 0 1020.3 1020.3 0.0
19/04:00am 7.9 7.2 7.1 95 0.4 CALM 0 0 0 0 1020.3 1020.3 0.0
19/03:53am 8.1 7.5 7.3 95 0.4 CALM 0 0 0 0 1020.3 1020.3 0.0
19/03:48am 8.0 7.4 7.2 95 0.4 CALM 0 0 0 0 1020.3 1020.3 0.0
19/03:30am 8.1 7.5 7.3 95 0.4 CALM 0 0 0 0 1020.2 1020.2 0.0
19/03:29am 8.1 7.5 7.3 95 0.4 CALM 0 0 0 0 1020.2 1020.2 0.0
19/03:15am 8.4 7.8 7.6 95 0.4 CALM 0 0 0 0 1020.3 1020.3 0.0
19/03:14am 8.4 7.8 7.6 95 0.4 CALM 0 0 0 0 1020.3 1020.3 0.0
19/03:00am 8.3 7.7 7.5 95 0.4 CALM 0 0 0 0 1020.3 1020.3 0.0
19/02:30am 8.2 7.6 7.3 94 0.4 CALM 0 0 0 0 1020.4 1020.4 0.0
19/02:00am 8.4 7.8 7.5 94 0.4 CALM 0 0 0 0 1020.5 1020.5 0.0
19/01:30am 8.6 8.1 7.7 94 0.4 CALM 0 0 0 0 1020.9 1020.9 0.0
19/01:00am 8.7 8.2 7.8 94 0.4 CALM 0 0 0 0 1020.8 1020.8 0.0
19/12:30am 8.8 8.3 7.7 93 0.5 CALM 0 0 0 0 1020.8 1020.8 0.0
19/12:00am 9.2 8.8 8.1 93 0.5 CALM 0 0 0 0 1020.7 1020.7 0.0
 
Date/Time
EST
Temp
°C
App
Temp
°C
Dew
Point
°C
Rel
Hum
%
Delta-T
°C
Wind Press
QNH
hPa
Press
MSL
hPa
Rain since
9am
mm
Dir  Spd
km/h
Gust
km/h
Spd
kts
Gust
kts
18/11:30pm 9.6 9.3 8.5 93 0.5 CALM 0 0 0 0 1020.9 1020.9 0.0
18/11:00pm 9.8 9.5 8.6 92 0.6 CALM 0 0 0 0 1020.8 1020.8 0.0
18/10:30pm 10.0 9.7 8.8 92 0.6 CALM 0 0 0 0 1020.9 1020.9 0.0
18/10:00pm 10.3 10.1 8.9 91 0.7 CALM 0 0 0 0 1021.1 1021.1 0.0
18/09:30pm 10.9 10.8 9.5 91 0.7 CALM 0 0 0 0 1021.1 1021.1 0.0
18/09:00pm 10.9 10.8 9.5 91 0.7 CALM 0 0 0 0 1021.0 1021.0 0.0
18/08:30pm 11.4 11.4 9.8 90 0.8 CALM 0 0 0 0 1021.0 1021.0 0.0
18/08:00pm 12.0 12.1 10.1 88 1.0 CALM 0 0 0 0 1020.8 1020.8 0.0
18/07:30pm 12.9 13.2 11.0 88 1.0 CALM 0 0 0 0 1020.7 1020.7 0.0
18/07:00pm 13.6 14.0 11.1 85 1.3 CALM 0 0 0 0 1020.5 1020.5 0.0
18/06:30pm 14.7 15.3 12.0 84 1.5 CALM 0 0 0 0 1020.3 1020.3 0.0
18/06:00pm 16.7 16.8 12.8 78 2.2 SE 4 7 2 4 1019.9 1019.9 0.0
18/05:30pm 18.9 18.7 13.1 69 3.3 E 6 9 3 5 1019.7 1019.7 0.0
18/05:00pm 20.4 19.9 12.6 61 4.4 E 7 13 4 7 1019.3 1019.3 0.0
18/04:30pm 21.5 20.5 12.4 56 5.1 ENE 9 17 5 9 1019.0 1019.0 0.0
18/04:00pm 22.5 20.6 10.6 47 6.5 E 11 17 6 9 1018.6 1018.6 0.0
18/03:30pm 22.8 20.1 10.3 45 6.9 ENE 15 19 8 10 1018.5 1018.5 0.0
18/03:00pm 23.9 21.5 10.2 42 7.5 E 13 20 7 11 1018.3 1018.3 0.0
18/02:30pm 24.2 22.3 9.0 38 8.2 ENE 9 15 5 8 1018.3 1018.3 0.0
18/02:00pm 24.0 22.0 7.2 34 8.8 ENE 7 11 4 6 1018.6 1018.6 0.0
18/01:30pm 24.4 22.4 8.8 37 8.4 E 9 15 5 8 1018.9 1018.9 0.0
18/01:00pm 24.2 21.6 7.8 35 8.6 NE 11 17 6 9 1019.2 1019.2 0.0
18/12:30pm 24.0 21.8 8.0 36 8.5 NE 9 15 5 8 1019.6 1019.6 0.0
18/12:00pm 23.8 22.0 7.0 34 8.7 ENE 6 13 3 7 1020.1 1020.1 0.0
18/11:30am 23.1 21.4 8.4 39 7.8 SSE 7 13 4 7 1020.6 1020.6 0.0
18/11:00am 22.1 21.1 10.9 49 6.2 ESE 7 17 4 9 1021.0 1021.0 0.0
18/10:30am 21.5 20.5 12.4 56 5.1 SSE 9 13 5 7 1021.4 1021.4 0.0
18/10:00am 20.5 20.5 15.1 71 3.2 SSE 9 13 5 7 1021.6 1021.6 0.0
18/09:30am 19.0 18.9 14.9 77 2.4 SSE 9 13 5 7 1021.6 1021.6 0.0
18/09:00am 16.9 17.0 14.5 86 1.4 SSE 7 9 4 5 1021.6 1021.6 0.0
18/08:30am 14.5 14.7 14.3 99 0.1 SSW 6 7 3 4 1021.3 1021.3 0.0
18/08:00am 12.9 12.6 12.7 99 0.1 SW 6 7 3 4 1021.2 1021.2 0.0
18/07:51am 12.5 12.1 12.3 99 0.1 SSW 6 7 3 4 1021.1 1021.1 0.0
18/07:30am 10.6 9.4 10.4 99 0.1 SW 7 9 4 5 1020.9 1020.9 0.0
18/07:19am 10.2 9.1 10.1 99 0.1 SSW 6 9 3 5 1020.8 1020.8 0.0
18/07:11am 9.6 8.4 9.5 99 0.0 SSW 6 7 3 4 1020.8 1020.8 0.0
18/07:04am 9.2 7.9 9.1 99 0.0 S 6 9 3 5 1020.7 1020.7 0.0
18/07:00am 9.0 7.4 8.9 99 0.0 S 7 9 4 5 1020.7 1020.7 0.0
18/06:30am 8.9 7.3 8.8 99 0.0 SSW 7 9 4 5 1020.2 1020.2 0.0
18/06:00am 7.6 7.0 7.2 97 0.2 CALM 0 0 0 0 1019.9 1019.9 0.0
18/05:30am 7.6 7.0 7.2 97 0.2 CALM 0 0 0 0 1019.7 1019.7 0.0
18/05:24am 7.6 6.9 7.0 96 0.3 CALM 0 0 0 0 1019.6 1019.6 0.0
18/05:21am 7.4 6.7 6.8 96 0.3 CALM 0 0 0 0 1019.5 1019.5 0.0
18/05:15am 7.2 6.4 6.6 96 0.3 CALM 0 0 0 0 1019.5 1019.5 0.0
18/05:00am 7.4 6.7 6.8 96 0.3 CALM 0 0 0 0 1019.3 1019.3 0.0
18/04:30am 7.7 7.0 7.1 96 0.3 CALM 0 0 0 0 1019.2 1019.2 0.0
18/04:00am 7.7 7.0 7.1 96 0.3 CALM 0 0 0 0 1019.1 1019.1 0.0
18/03:43am 7.7 7.0 7.1 96 0.3 CALM 0 0 0 0 1019.1 1019.1 0.0
18/03:30am 7.8 7.2 7.2 96 0.3 CALM 0 0 0 0 1019.1 1019.1 0.0
18/03:21am 7.7 7.0 7.0 95 0.3 CALM 0 0 0 0 1019.0 1019.0 0.0
18/03:00am 7.8 7.1 7.1 95 0.3 CALM 0 0 0 0 1019.0 1019.0 0.0
18/02:30am 7.8 7.1 6.9 94 0.4 CALM 0 0 0 0 1019.0 1019.0 0.0
18/02:00am 8.1 7.5 7.3 95 0.4 CALM 0 0 0 0 1019.0 1019.0 0.0
18/01:30am 8.2 7.6 7.3 94 0.4 CALM 0 0 0 0 1019.3 1019.3 0.0
18/01:00am 8.4 7.8 7.5 94 0.4 CALM 0 0 0 0 1019.5 1019.5 0.0
18/12:30am 8.6 8.1 7.7 94 0.4 CALM 0 0 0 0 1019.7 1019.7 0.0
18/12:00am 8.7 8.2 7.8 94 0.4 CALM 0 0 0 0 1019.7 1019.7 0.0
 
Date/Time
EST
Temp
°C
App
Temp
°C
Dew
Point
°C
Rel
Hum
%
Delta-T
°C
Wind Press
QNH
hPa
Press
MSL
hPa
Rain since
9am
mm
Dir  Spd
km/h
Gust
km/h
Spd
kts
Gust
kts
17/11:30pm 9.0 8.6 8.1 94 0.4 CALM 0 0 0 0 1019.9 1019.9 0.0
17/11:00pm 9.1 8.6 8.0 93 0.5 CALM 0 0 0 0 1020.0 1020.0 0.0
17/10:30pm 9.5 9.1 8.4 93 0.5 CALM 0 0 0 0 1020.0 1020.0 0.0
17/10:00pm 9.8 9.5 8.6 92 0.6 CALM 0 0 0 0 1020.1 1020.1 0.0

Other Formats:

Comma delimited format used in spreadsheet applications
http://www.bom.gov.au/fwo/IDQ60801/IDQ60801.94370.axf

JavaScript Object Notation format (JSON) in row-major order
http://www.bom.gov.au/fwo/IDQ60801/IDQ60801.94370.json